Lucas Gonzalez, Argentina
Current Conditions -  °F | °C
As of 10:00 AM on Thursday 27 Nov 2014 (Local Time) from SAAR Reporting Station
Clear Clear  
Wind Chill: 77°   Ceiling: Unl
Heat Index: 78°   Visibility: 6mi
Dew Point: 52°   Wind: 7mph
Humidity: 41%   Direction: 90°E
Pressure: 30"   Gusts: NA
Location:  32.4°S, 59.55°W
Report Text: SAAR 271300Z 09006KT CAVOK 25/11 Q1016
Loading
Personal Weather Stations






























Interactive Weather Map New forecast layout! Learn more

10-Day Weather Forecast

Advertisements
Track Severe Weather on mobile